Fort Lewis, Washington
Current Conditions -  °F | °C
As of 2:58 PM on Wednesday 26 Nov 2014 (Local Time) from KGRF Reporting Station
Overcast Overcast  
Wind Chill: 59°   Ceiling: 3700
Heat Index: 59°   Visibility: 10mi
Dew Point: 53°   Wind: 8mph
Humidity: 79%   Direction: 180°S
Pressure: 30.04"   Gusts: NA
Location:  47.04°N, 122.6°W
Report Text: KGRF 262258Z AUTO 18007KT 10SM OVC037 15/12 A3004 RMK AO2 SLP176 T01520115 PWINO $
Loading
Personal Weather Stations






























Interactive Weather Map New forecast layout! Learn more

10-Day Weather Forecast

Advertisements
Track Severe Weather on mobile